createdAt,value
2022-10-23T00:00:42.848Z,101151.63
2022-10-23T00:06:11.604Z,101157.47
2022-10-23T00:11:41.516Z,101149.84
2022-10-23T00:17:12.775Z,101139.66
2022-10-23T00:22:41.164Z,101134.69
2022-10-23T00:28:10.566Z,101124.38
2022-10-23T00:33:41.313Z,101124.91
2022-10-23T00:39:10.030Z,101113.81
2022-10-23T00:45:16.580Z,101107.31
2022-10-23T00:50:49.223Z,101095.91
2022-10-23T00:56:18.413Z,101091.19
2022-10-23T01:01:48.353Z,101093.28
2022-10-23T01:07:26.106Z,101076.53
2022-10-23T01:13:04.573Z,101063.59
2022-10-23T01:18:41.281Z,101050.66
2022-10-23T01:24:20.582Z,101049.81
2022-10-23T01:30:01.158Z,101036.44
2022-10-23T01:35:38.972Z,101029.13
2022-10-23T01:41:12.520Z,101020.81
2022-10-23T01:46:44.954Z,101017.69
2022-10-23T01:52:15.670Z,101015.22
2022-10-23T01:57:49.521Z,100996.25
2022-10-23T02:03:19.679Z,101010.66
2022-10-23T02:08:48.665Z,100996.50
2022-10-23T02:14:21.688Z,100997.13
2022-10-23T02:19:59.396Z,100996.88
2022-10-23T02:25:34.018Z,100998.97
2022-10-23T02:31:05.702Z,100996.88
2022-10-23T02:36:36.661Z,100988.75
2022-10-23T02:42:12.445Z,100991.91
2022-10-23T02:47:55.181Z,100984.88
2022-10-23T02:53:34.413Z,100974.03
2022-10-23T02:59:10.509Z,100981.13
2022-10-23T03:04:43.045Z,100977.38
2022-10-23T03:10:14.412Z,100974.47
2022-10-23T03:15:44.583Z,100972.59
2022-10-23T03:21:16.257Z,100966.53
2022-10-23T03:26:46.560Z,100964.88
2022-10-23T03:32:15.337Z,100958.00
2022-10-23T03:37:44.746Z,100949.47
2022-10-23T03:43:15.966Z,100946.13
2022-10-23T03:48:45.820Z,100937.78
2022-10-23T03:54:14.286Z,100939.88
2022-10-23T03:59:44.890Z,100930.91
2022-10-23T04:05:09.548Z,100917.34
2022-10-23T04:10:34.888Z,100914.63
2022-10-23T04:16:01.211Z,100910.47
2022-10-23T04:21:24.773Z,100905.69
2022-10-23T04:26:48.749Z,100892.38
2022-10-23T04:32:14.239Z,100891.56
2022-10-23T04:37:41.967Z,100893.44
2022-10-23T04:43:06.804Z,100890.97
2022-10-23T04:48:37.151Z,100893.72
2022-10-23T04:54:20.075Z,100897.06
2022-10-23T05:00:19.567Z,100892.09
2022-10-23T05:05:55.773Z,100887.50
2022-10-23T05:11:39.325Z,100885.88
2022-10-23T05:17:10.634Z,100893.41
2022-10-23T05:22:40.340Z,100882.94
2022-10-23T05:28:08.902Z,100883.19
2022-10-23T05:33:34.007Z,100884.22
2022-10-23T05:39:00.228Z,100881.72
2022-10-23T05:44:25.981Z,100889.88
2022-10-23T05:50:06.880Z,100883.59
2022-10-23T05:56:09.756Z,100881.28
2022-10-23T06:01:42.324Z,100871.88
2022-10-23T06:07:07.452Z,100875.88
2022-10-23T06:12:33.924Z,100877.53
2022-10-23T06:18:01.970Z,100871.28
2022-10-23T06:23:28.909Z,100872.94
2022-10-23T06:29:17.040Z,100872.50
2022-10-23T06:34:41.089Z,100866.25
2022-10-23T06:40:07.945Z,100859.97
2022-10-23T06:46:01.899Z,100847.47
2022-10-23T06:51:58.193Z,100846.63
2022-10-23T06:57:22.035Z,100842.88
2022-10-23T07:02:48.001Z,100842.00
2022-10-23T07:08:14.255Z,100839.28
2022-10-23T07:13:41.091Z,100827.78
2022-10-23T07:19:15.884Z,100810.44
2022-10-23T07:25:09.490Z,100806.06
2022-10-23T07:30:36.034Z,100783.28
2022-10-23T07:36:02.597Z,100788.50
2022-10-23T07:41:27.414Z,100782.25
2022-10-23T07:46:51.973Z,100778.91
2022-10-23T07:52:18.361Z,100771.38
2022-10-23T07:58:06.390Z,100773.50
2022-10-23T08:03:38.099Z,100755.16
2022-10-23T08:09:06.605Z,100772.72
2022-10-23T08:14:35.253Z,100758.53
2022-10-23T08:19:59.795Z,100744.31
2022-10-23T08:30:57.696Z,100735.94
2022-10-23T08:36:25.102Z,100729.03
2022-10-23T08:41:52.625Z,100726.31
2022-10-23T08:47:23.997Z,100722.38
2022-10-23T08:53:06.168Z,100705.06
2022-10-23T08:58:38.669Z,100701.34
2022-10-23T09:04:04.940Z,100690.28
2022-10-23T09:09:47.859Z,100686.97
2022-10-23T09:15:24.155Z,100680.72
2022-10-23T09:20:50.278Z,100670.91
2022-10-23T09:26:17.504Z,100656.75
2022-10-23T09:31:51.459Z,100641.28
2022-10-23T09:37:23.237Z,100657.78
2022-10-23T09:42:59.254Z,100638.19
2022-10-23T09:48:25.095Z,100634.16
2022-10-23T09:53:53.483Z,100620.84
2022-10-23T09:59:25.016Z,100610.03
2022-10-23T10:04:54.664Z,100604.16
2022-10-23T10:10:19.627Z,100588.75
2022-10-23T10:15:51.500Z,100572.28
2022-10-23T10:21:22.317Z,100566.66
2022-10-23T10:26:58.975Z,100560.00
2022-10-23T10:32:36.852Z,100543.53
2022-10-23T10:38:21.307Z,100533.91
2022-10-23T10:43:53.168Z,100525.97
2022-10-23T10:49:24.211Z,100502.56
2022-10-23T10:55:13.952Z,100492.94
2022-10-23T11:00:38.576Z,100486.44
2022-10-23T11:06:05.806Z,100470.16
2022-10-23T11:11:37.265Z,100456.31
2022-10-23T11:17:09.300Z,100451.72
2022-10-23T11:22:38.625Z,100436.38
2022-10-23T11:28:19.889Z,100426.31
2022-10-23T11:34:07.985Z,100423.94
2022-10-23T11:39:37.142Z,100403.59
2022-10-23T11:45:32.239Z,100394.56
2022-10-23T11:50:59.045Z,100395.94
2022-10-23T11:56:28.069Z,100385.47
2022-10-23T12:01:58.129Z,100383.50
2022-10-23T12:07:25.893Z,100381.34
2022-10-23T12:12:57.694Z,100371.06
2022-10-23T12:18:24.188Z,100375.00
2022-10-23T12:24:09.173Z,100379.84
2022-10-23T12:29:44.769Z,100356.72
2022-10-23T12:35:25.732Z,100364.72
2022-10-23T12:40:53.726Z,100365.63
2022-10-23T12:46:32.623Z,100358.81
2022-10-23T12:52:01.052Z,100359.09
2022-10-23T12:57:30.206Z,100371.75
2022-10-23T13:03:03.409Z,100361.16
2022-10-23T13:08:35.278Z,100358.09
2022-10-23T13:14:33.160Z,100355.28
2022-10-23T13:19:57.331Z,100363.31
2022-10-23T13:25:25.066Z,100356.25
2022-10-23T13:31:03.026Z,100356.72
2022-10-23T13:36:31.266Z,100346.09
2022-10-23T13:42:03.057Z,100351.38
2022-10-23T13:47:28.545Z,100337.63
2022-10-23T13:52:53.537Z,100341.41
2022-10-23T13:58:20.051Z,100347.03
2022-10-23T14:03:44.960Z,100331.00
2022-10-23T14:09:12.957Z,100333.50
2022-10-23T14:14:39.179Z,100339.34
2022-10-23T14:20:06.052Z,100325.56
2022-10-23T14:25:30.139Z,100342.66
2022-10-23T14:30:55.810Z,100314.72
2022-10-23T14:36:20.823Z,100334.53
2022-10-23T14:41:45.485Z,100316.38
2022-10-23T14:47:11.563Z,100323.09
2022-10-23T14:52:36.711Z,100316.84
2022-10-23T14:58:01.506Z,100318.91
2022-10-23T15:03:27.470Z,100322.66
2022-10-23T15:08:52.245Z,100309.53
2022-10-23T15:14:17.526Z,100319.78
2022-10-23T15:19:44.515Z,100320.84
2022-10-23T15:25:14.262Z,100334.38
2022-10-23T15:30:43.486Z,100324.59
2022-10-23T15:36:09.761Z,100328.09
2022-10-23T15:41:37.985Z,100326.03
2022-10-23T15:47:02.764Z,100333.59
2022-10-23T15:52:29.553Z,100334.38
2022-10-23T15:57:59.107Z,100337.25
2022-10-23T16:03:23.597Z,100336.66
2022-10-23T16:08:49.741Z,100349.81
2022-10-23T16:14:16.506Z,100349.00
2022-10-23T16:19:41.993Z,100366.53
2022-10-23T16:25:09.179Z,100369.44
2022-10-23T16:30:34.434Z,100370.66
2022-10-23T16:36:04.120Z,100371.06
2022-10-23T16:41:30.818Z,100359.06
2022-10-23T16:47:00.150Z,100372.16
2022-10-23T16:52:25.406Z,100372.53
2022-10-23T16:57:51.543Z,100382.56
2022-10-23T17:03:16.407Z,100382.56
2022-10-23T17:08:41.712Z,100386.78
2022-10-23T17:14:09.696Z,100393.25
2022-10-23T17:19:49.790Z,100393.47
2022-10-23T17:25:15.416Z,100390.31
2022-10-23T17:30:41.148Z,100391.38
2022-10-23T17:36:06.076Z,100393.03
2022-10-23T17:41:30.016Z,100396.34
2022-10-23T17:46:56.876Z,100403.03
2022-10-23T17:52:20.872Z,100411.41
2022-10-23T17:57:45.530Z,100409.72
2022-10-23T18:03:15.463Z,100418.09
2022-10-23T18:08:44.866Z,100413.91
2022-10-23T18:14:09.469Z,100411.41
2022-10-23T18:19:36.505Z,100415.16
2022-10-23T18:25:01.045Z,100419.16
2022-10-23T18:30:25.107Z,100417.28
2022-10-23T18:35:51.525Z,100414.16
2022-10-23T18:41:18.053Z,100423.97
2022-10-23T18:46:42.049Z,100440.50
2022-10-23T18:52:07.532Z,100433.63
2022-10-23T18:57:32.479Z,100436.53
2022-10-23T19:02:56.416Z,100444.47
2022-10-23T19:08:21.939Z,100426.94
2022-10-23T19:13:47.123Z,100439.22
2022-10-23T19:19:16.375Z,100447.59
2022-10-23T19:24:46.658Z,100452.38
2022-10-23T19:30:13.723Z,100449.69
2022-10-23T19:35:38.139Z,100456.53
2022-10-23T19:41:04.839Z,100462.41
2022-10-23T19:46:31.921Z,100464.47
2022-10-23T19:51:57.091Z,100461.56
2022-10-23T19:57:27.255Z,100459.47
2022-10-23T20:02:55.168Z,100460.91
2022-10-23T20:08:24.637Z,100461.34
2022-10-23T20:13:51.449Z,100463.22
2022-10-23T20:24:47.365Z,100464.28
2022-10-23T20:30:13.500Z,100475.13
2022-10-23T20:35:41.742Z,100478.03
2022-10-23T20:41:07.503Z,100480.53
2022-10-23T20:46:35.136Z,100483.88
2022-10-23T20:51:59.933Z,100479.06
2022-10-23T20:57:24.283Z,100486.97
2022-10-23T21:02:52.533Z,100478.66
2022-10-23T21:08:17.449Z,100476.78
2022-10-23T21:13:43.069Z,100481.16
2022-10-23T21:19:11.770Z,100483.88
2022-10-23T21:24:35.669Z,100477.19
2022-10-23T21:30:00.114Z,100484.94
2022-10-23T21:35:29.284Z,100505.84
2022-10-23T21:40:53.966Z,100502.09
2022-10-23T21:46:21.786Z,100512.13
2022-10-23T21:51:47.963Z,100526.28
2022-10-23T21:57:14.371Z,100532.13
2022-10-23T22:02:38.884Z,100522.53
2022-10-23T22:08:05.247Z,100531.72
2022-10-23T22:13:29.849Z,100530.47
2022-10-23T22:18:54.137Z,100538.78
2022-10-23T22:24:20.420Z,100543.19
2022-10-23T22:29:45.964Z,100554.22
2022-10-23T22:35:10.589Z,100560.06
2022-10-23T22:40:41.884Z,100565.44
2022-10-23T22:46:10.142Z,100580.88
2022-10-23T22:51:34.433Z,100602.09
2022-10-23T22:57:00.036Z,100600.22
2022-10-23T23:02:24.207Z,100607.72
2022-10-23T23:07:49.200Z,100614.78
2022-10-23T23:13:14.878Z,100615.19
2022-10-23T23:18:39.260Z,100620.81
2022-10-23T23:24:03.195Z,100630.81
2022-10-23T23:29:29.647Z,100638.91
2022-10-23T23:35:00.214Z,100639.75
2022-10-23T23:40:24.338Z,100653.69
2022-10-23T23:45:49.956Z,100652.41
2022-10-23T23:51:14.494Z,100657.03
2022-10-23T23:56:38.465Z,100654.94
